createdAt,value
2019-02-18T00:01:51.845Z,0.00
2019-02-18T00:02:52.085Z,0.00
2019-02-18T00:04:56.245Z,0.00
2019-02-18T00:05:56.481Z,0.00
2019-02-18T00:07:49.574Z,0.00
2019-02-18T00:08:49.809Z,0.00
2019-02-18T00:10:53.957Z,0.00
2019-02-18T00:11:54.191Z,0.00
2019-02-18T00:13:58.357Z,0.00
2019-02-18T00:14:58.593Z,0.00
2019-02-18T00:17:02.741Z,0.00
2019-02-18T00:18:02.975Z,0.00
2019-02-18T00:20:07.190Z,0.00
2019-02-18T00:21:07.371Z,0.00
2019-02-18T00:23:11.536Z,0.00
2019-02-18T00:24:11.771Z,0.00
2019-02-18T00:26:15.918Z,0.00
2019-02-18T00:27:16.150Z,0.00
2019-02-18T00:29:20.314Z,0.00
2019-02-18T00:30:20.552Z,0.00
2019-02-18T00:32:24.701Z,0.00
2019-02-18T00:33:24.938Z,0.00
2019-02-18T00:35:29.098Z,0.00
2019-02-18T00:36:29.336Z,0.00
2019-02-18T00:38:33.524Z,0.00
2019-02-18T00:39:33.740Z,0.00
2019-02-18T00:41:37.886Z,0.00
2019-02-18T00:42:38.122Z,0.00
2019-02-18T00:44:42.287Z,0.00
2019-02-18T00:45:42.521Z,0.00
2019-02-18T00:47:35.593Z,0.00
2019-02-18T00:48:35.833Z,0.00
2019-02-18T00:50:39.997Z,0.00
2019-02-18T00:51:40.241Z,0.00
2019-02-18T00:53:44.399Z,0.00
2019-02-18T00:54:44.643Z,0.00
2019-02-18T00:56:48.785Z,0.00
2019-02-18T00:57:49.022Z,0.00
2019-02-18T00:59:53.190Z,0.00
2019-02-18T01:00:53.428Z,0.00
2019-02-18T01:02:57.574Z,0.00
2019-02-18T01:03:57.810Z,0.00
2019-02-18T01:06:01.977Z,0.00
2019-02-18T01:07:02.214Z,0.00
2019-02-18T01:09:06.378Z,0.00
2019-02-18T01:10:06.693Z,0.00
2019-02-18T01:12:10.763Z,0.00
2019-02-18T01:13:11.000Z,0.00
2019-02-18T01:15:15.163Z,0.00
2019-02-18T01:16:15.398Z,0.00
2019-02-18T01:18:19.548Z,0.00
2019-02-18T01:19:19.853Z,0.00
2019-02-18T01:21:23.953Z,0.00
2019-02-18T01:22:24.188Z,0.00
2019-02-18T01:24:28.360Z,0.00
2019-02-18T01:25:28.601Z,0.00
2019-02-18T01:27:21.674Z,0.00
2019-02-18T01:28:21.908Z,0.00
2019-02-18T01:30:26.077Z,0.00
2019-02-18T01:31:26.313Z,0.00
2019-02-18T01:33:30.458Z,0.00
2019-02-18T01:34:30.698Z,0.00
2019-02-18T01:36:34.860Z,0.00
2019-02-18T01:37:44.811Z,0.00
2019-02-18T01:39:39.266Z,0.00
2019-02-18T01:40:39.508Z,0.00
2019-02-18T01:42:43.657Z,0.00
2019-02-18T01:43:43.889Z,0.00
2019-02-18T01:45:48.058Z,0.00
2019-02-18T01:46:48.295Z,0.00
2019-02-18T01:48:52.435Z,0.00
2019-02-18T01:49:52.671Z,0.00
2019-02-18T01:51:56.841Z,0.00
2019-02-18T01:52:57.075Z,0.00
2019-02-18T01:55:01.241Z,0.00
2019-02-18T01:56:01.478Z,0.00
2019-02-18T01:57:54.550Z,0.00
2019-02-18T01:58:54.786Z,0.00
2019-02-18T02:00:58.954Z,0.00
2019-02-18T02:01:59.193Z,0.00
2019-02-18T02:04:03.391Z,0.00
2019-02-18T02:05:03.574Z,0.00
2019-02-18T02:07:07.743Z,0.00
2019-02-18T02:08:07.979Z,0.00
2019-02-18T02:10:12.149Z,0.00
2019-02-18T02:11:12.383Z,0.00
2019-02-18T02:13:16.529Z,0.00
2019-02-18T02:14:16.764Z,0.00
2019-02-18T02:16:20.932Z,0.00
2019-02-18T02:17:21.170Z,0.00
2019-02-18T02:19:25.314Z,0.00
2019-02-18T02:20:25.552Z,0.00
2019-02-18T02:22:29.717Z,0.00
2019-02-18T02:23:29.998Z,0.00
2019-02-18T02:25:34.116Z,0.00
2019-02-18T02:26:34.354Z,0.00
2019-02-18T02:28:38.502Z,0.00
2019-02-18T02:29:38.735Z,0.00
2019-02-18T02:31:42.969Z,0.00
2019-02-18T02:32:43.140Z,0.00
2019-02-18T02:34:47.287Z,0.00
2019-02-18T02:35:47.525Z,0.00
2019-02-18T02:37:40.613Z,0.00
2019-02-18T02:38:40.851Z,0.00
2019-02-18T02:40:45.017Z,0.00
2019-02-18T02:41:45.256Z,0.00
2019-02-18T02:43:49.402Z,0.00
2019-02-18T02:44:49.639Z,0.00
2019-02-18T02:46:53.807Z,0.00
2019-02-18T02:47:54.043Z,0.00
2019-02-18T02:49:58.190Z,0.00
2019-02-18T02:50:58.426Z,0.00
2019-02-18T02:53:02.590Z,0.00
2019-02-18T02:54:02.828Z,0.00
2019-02-18T02:56:06.993Z,0.00
2019-02-18T02:57:07.228Z,0.00
2019-02-18T02:59:11.370Z,0.00
2019-02-18T03:00:11.606Z,0.00
2019-02-18T03:02:15.779Z,0.00
2019-02-18T03:03:16.009Z,0.00
2019-02-18T03:05:20.159Z,0.00
2019-02-18T03:06:20.387Z,0.00
2019-02-18T03:08:24.551Z,0.00
2019-02-18T03:09:24.798Z,0.00
2019-02-18T03:11:28.931Z,0.00
2019-02-18T03:12:29.164Z,0.00
2019-02-18T03:14:33.346Z,0.00
2019-02-18T03:15:33.572Z,0.00
2019-02-18T03:17:26.666Z,0.00
2019-02-18T03:18:26.904Z,0.00
2019-02-18T03:20:31.053Z,0.00
2019-02-18T03:21:31.294Z,0.00
2019-02-18T03:23:35.454Z,0.00
2019-02-18T03:24:35.693Z,0.00
2019-02-18T03:26:39.833Z,0.00
2019-02-18T03:27:40.072Z,0.00
2019-02-18T03:29:44.235Z,0.00
2019-02-18T03:30:44.473Z,0.00
2019-02-18T03:32:48.648Z,0.00
2019-02-18T03:33:48.874Z,0.00
2019-02-18T03:35:53.019Z,0.00
2019-02-18T03:36:53.256Z,0.00
2019-02-18T03:38:57.426Z,0.00
2019-02-18T03:39:57.656Z,0.00
2019-02-18T03:42:01.808Z,0.00
2019-02-18T03:43:02.044Z,0.00
2019-02-18T03:45:06.210Z,0.00
2019-02-18T03:46:06.450Z,0.00
2019-02-18T03:47:59.545Z,0.00
2019-02-18T03:48:59.780Z,0.00
2019-02-18T03:51:03.923Z,0.00
2019-02-18T03:52:04.163Z,0.00
2019-02-18T03:54:08.327Z,0.00
2019-02-18T03:55:08.563Z,0.00
2019-02-18T03:57:12.729Z,0.00
2019-02-18T03:58:12.943Z,0.00
2019-02-18T04:00:17.108Z,0.00
2019-02-18T04:01:17.345Z,0.00
2019-02-18T04:03:21.510Z,0.00
2019-02-18T04:04:21.746Z,0.00
2019-02-18T04:06:26.003Z,0.00
2019-02-18T04:07:26.132Z,0.00
2019-02-18T04:09:30.299Z,0.00
2019-02-18T04:10:30.543Z,0.00
2019-02-18T04:12:34.702Z,0.00
2019-02-18T04:13:34.921Z,0.00
2019-02-18T04:15:39.087Z,0.00
2019-02-18T04:16:39.325Z,0.00
2019-02-18T04:18:43.490Z,0.00
2019-02-18T04:19:43.729Z,0.00
2019-02-18T04:21:47.872Z,0.00
2019-02-18T04:22:48.108Z,0.00
2019-02-18T04:24:52.273Z,0.00
2019-02-18T04:25:52.511Z,0.00
2019-02-18T04:27:45.579Z,0.00
2019-02-18T04:28:45.817Z,0.00
2019-02-18T04:30:49.986Z,0.00
2019-02-18T04:31:50.224Z,0.00
2019-02-18T04:33:54.389Z,0.00
2019-02-18T04:34:54.630Z,0.00
2019-02-18T04:36:58.772Z,0.00
2019-02-18T04:37:59.010Z,0.00
2019-02-18T04:40:03.170Z,0.00
2019-02-18T04:41:03.406Z,0.00
2019-02-18T04:43:07.550Z,0.00
2019-02-18T04:44:07.788Z,0.00
2019-02-18T04:46:11.954Z,0.00
2019-02-18T04:47:12.194Z,0.00
2019-02-18T04:49:16.363Z,0.00
2019-02-18T04:50:16.604Z,0.00
2019-02-18T04:52:20.747Z,0.00
2019-02-18T04:53:20.983Z,0.00
2019-02-18T04:55:25.152Z,0.00
2019-02-18T04:56:25.389Z,0.00
2019-02-18T04:58:29.534Z,0.00
2019-02-18T04:59:29.770Z,0.00
2019-02-18T05:01:33.935Z,0.00
2019-02-18T05:02:34.171Z,0.00
2019-02-18T05:04:38.342Z,0.00
2019-02-18T05:05:38.574Z,0.00
2019-02-18T05:07:31.650Z,0.00
2019-02-18T05:08:31.884Z,0.00
2019-02-18T05:10:36.051Z,0.00
2019-02-18T05:11:36.289Z,0.00
2019-02-18T05:13:40.442Z,0.00
2019-02-18T05:14:40.680Z,0.00
2019-02-18T05:16:44.850Z,0.00
2019-02-18T05:17:45.088Z,0.00
2019-02-18T05:19:49.260Z,0.00
2019-02-18T05:20:49.495Z,0.00
2019-02-18T05:22:53.635Z,0.00
2019-02-18T05:23:53.873Z,0.00
2019-02-18T05:25:58.039Z,0.00
2019-02-18T05:26:58.278Z,0.00
2019-02-18T05:29:02.427Z,0.00
2019-02-18T05:30:02.749Z,0.00
2019-02-18T05:32:06.826Z,0.00
2019-02-18T05:33:07.061Z,0.00
2019-02-18T05:35:11.226Z,0.00
2019-02-18T05:36:11.464Z,0.00
2019-02-18T05:38:04.531Z,0.00
2019-02-18T05:39:04.770Z,0.00
2019-02-18T05:41:08.940Z,0.00
2019-02-18T05:42:09.174Z,0.00
2019-02-18T05:44:13.317Z,0.00
2019-02-18T05:45:13.557Z,0.00
2019-02-18T05:47:17.723Z,0.00
2019-02-18T05:48:17.959Z,0.00
2019-02-18T05:50:22.120Z,0.00
2019-02-18T05:51:22.359Z,4.00
2019-02-18T05:53:26.498Z,0.00
2019-02-18T05:54:26.737Z,4.00
2019-02-18T05:56:30.903Z,4.00
2019-02-18T05:57:31.143Z,4.00
2019-02-18T05:59:35.281Z,8.00
2019-02-18T06:00:35.516Z,8.00
2019-02-18T06:02:39.681Z,12.00
2019-02-18T06:03:39.916Z,12.00
2019-02-18T06:05:44.083Z,20.00
2019-02-18T06:06:44.321Z,24.00
2019-02-18T06:08:48.461Z,36.00
2019-02-18T06:09:48.697Z,40.00
2019-02-18T06:11:52.865Z,56.00
2019-02-18T06:12:53.105Z,68.00
2019-02-18T06:14:57.244Z,92.00
2019-02-18T06:15:57.480Z,108.00
2019-02-18T06:17:50.570Z,140.00
2019-02-18T06:18:50.877Z,160.00
2019-02-18T06:20:54.974Z,208.00
2019-02-18T06:21:55.209Z,240.00
2019-02-18T06:23:59.350Z,300.00
2019-02-18T06:24:59.590Z,340.00
2019-02-18T06:27:03.751Z,420.00
2019-02-18T06:28:04.976Z,468.00
2019-02-18T06:30:08.136Z,568.00
2019-02-18T06:31:08.374Z,624.00
2019-02-18T06:33:12.548Z,752.00
2019-02-18T06:34:12.786Z,820.00
2019-02-18T06:36:16.957Z,968.00
2019-02-18T06:37:17.196Z,1052.00
2019-02-18T06:39:21.339Z,1228.00
2019-02-18T06:40:21.578Z,1320.00
2019-02-18T06:42:25.741Z,1536.00
2019-02-18T06:43:25.979Z,1648.00
2019-02-18T06:45:30.126Z,1864.00
2019-02-18T06:46:30.362Z,1976.00
2019-02-18T06:48:34.529Z,2244.00
2019-02-18T06:49:34.766Z,2424.00
2019-02-18T06:51:38.934Z,3360.00
2019-02-18T06:52:39.171Z,4220.00
2019-02-18T06:54:43.313Z,4728.00
2019-02-18T06:55:43.553Z,5136.00
2019-02-18T06:57:36.646Z,5924.00
2019-02-18T06:58:36.901Z,6148.00
2019-02-18T07:00:41.073Z,7260.00
2019-02-18T07:01:41.312Z,7788.00
2019-02-18T07:03:45.469Z,8496.00
2019-02-18T07:04:45.703Z,9024.00
2019-02-18T07:06:49.870Z,10364.00
2019-02-18T07:07:50.102Z,11112.00
2019-02-18T07:09:54.245Z,12384.00
2019-02-18T07:10:54.481Z,12384.00
2019-02-18T07:12:58.641Z,13920.00
2019-02-18T07:13:58.876Z,14912.00
2019-02-18T07:16:03.020Z,16256.00
2019-02-18T07:17:03.255Z,15936.00
2019-02-18T07:19:07.428Z,17184.00
2019-02-18T07:20:07.668Z,17952.00
2019-02-18T07:22:11.804Z,20416.00
2019-02-18T07:23:12.083Z,20928.00
2019-02-18T07:25:16.250Z,21600.00
2019-02-18T07:26:16.485Z,22432.00
2019-02-18T07:28:20.660Z,23232.00
2019-02-18T07:29:20.896Z,24544.00
2019-02-18T07:31:25.047Z,26368.00
2019-02-18T07:32:25.285Z,26368.00
2019-02-18T07:34:29.456Z,26592.00
2019-02-18T07:35:29.695Z,27552.00
2019-02-18T07:37:22.771Z,28512.00
2019-02-18T07:38:23.012Z,28544.00
2019-02-18T07:40:27.183Z,30240.00
2019-02-18T07:41:27.427Z,30880.00
2019-02-18T07:43:31.598Z,32320.00
2019-02-18T07:44:31.838Z,34368.00
2019-02-18T07:46:35.991Z,34336.00
2019-02-18T07:47:36.230Z,36800.00
2019-02-18T07:49:40.404Z,39232.00
2019-02-18T07:50:40.646Z,39392.00
2019-02-18T07:52:44.814Z,39392.00
2019-02-18T07:53:45.042Z,39424.00
2019-02-18T07:55:49.220Z,40384.00
2019-02-18T07:56:49.463Z,40256.00
2019-02-18T07:58:53.645Z,41536.00
2019-02-18T07:59:53.886Z,41952.00
2019-02-18T08:01:58.043Z,40480.00
2019-02-18T08:02:58.295Z,39616.00
2019-02-18T08:05:02.654Z,35616.00
2019-02-18T08:06:02.710Z,36224.00
2019-02-18T08:07:55.830Z,43776.00
2019-02-18T08:08:56.073Z,39456.00
2019-02-18T08:11:00.235Z,54624.00
2019-02-18T08:12:00.477Z,51936.00
2019-02-18T08:14:04.659Z,55136.00
2019-02-18T08:15:04.903Z,53056.00
2019-02-18T08:17:09.070Z,49632.00
2019-02-18T08:18:09.312Z,54496.00
2019-02-18T08:20:13.495Z,49664.00
2019-02-18T08:21:13.801Z,56864.00
2019-02-18T08:23:17.925Z,55360.00
2019-02-18T08:24:18.174Z,61920.00
2019-02-18T08:26:22.340Z,64736.00
2019-02-18T08:27:22.583Z,60416.00
2019-02-18T08:29:26.768Z,64704.00
2019-02-18T08:30:27.015Z,68608.00
2019-02-18T08:32:31.181Z,62464.00
2019-02-18T08:33:31.425Z,67360.00
2019-02-18T08:35:35.615Z,68000.00
2019-02-18T08:36:35.861Z,66304.00
2019-02-18T08:38:40.058Z,64800.00
2019-02-18T08:39:40.312Z,69280.00
2019-02-18T08:41:44.476Z,69152.00
2019-02-18T08:42:44.727Z,65760.00
2019-02-18T08:44:48.918Z,68896.00
2019-02-18T08:45:49.167Z,71296.00
2019-02-18T08:47:42.268Z,70976.00
2019-02-18T08:48:42.517Z,70272.00
2019-02-18T08:50:46.709Z,71648.00
2019-02-18T08:51:46.960Z,71232.00
2019-02-18T08:53:51.135Z,73792.00
2019-02-18T08:54:56.468Z,74592.00
2019-02-18T08:56:55.576Z,77504.00
2019-02-18T08:57:55.827Z,77504.00
2019-02-18T09:00:00.020Z,78144.00
2019-02-18T09:01:02.553Z,77888.00
2019-02-18T09:03:04.445Z,79360.00
2019-02-18T09:04:04.693Z,83072.00
2019-02-18T09:06:08.887Z,79200.00
2019-02-18T09:07:09.138Z,78048.00
2019-02-18T09:09:13.311Z,81440.00
2019-02-18T09:10:13.562Z,80608.00
2019-02-18T09:12:17.756Z,79488.00
2019-02-18T09:13:18.007Z,80320.00
2019-02-18T09:15:22.206Z,85760.00
2019-02-18T09:16:22.459Z,85632.00
2019-02-18T09:18:26.629Z,80416.00
2019-02-18T09:19:26.881Z,87040.00
2019-02-18T09:21:31.075Z,93024.00
2019-02-18T09:22:31.331Z,92256.00
2019-02-18T09:24:35.501Z,90400.00
2019-02-18T09:25:35.753Z,87328.00
2019-02-18T09:27:28.881Z,93088.00
2019-02-18T09:28:29.132Z,95712.00
2019-02-18T09:30:34.343Z,99040.00
2019-02-18T09:31:34.605Z,97568.00
2019-02-18T09:33:38.766Z,94144.00
2019-02-18T09:34:39.020Z,96064.00
2019-02-18T09:36:43.244Z,99680.00
2019-02-18T09:37:43.496Z,101056.00
2019-02-18T09:39:47.672Z,103872.00
2019-02-18T09:40:51.424Z,103136.00
2019-02-18T09:42:52.124Z,100864.00
2019-02-18T09:43:52.380Z,101344.00
2019-02-18T09:45:56.589Z,105568.00
2019-02-18T09:46:56.844Z,101824.00
2019-02-18T09:49:01.022Z,96416.00
2019-02-18T09:50:01.277Z,103936.00
2019-02-18T09:52:05.478Z,111136.00
2019-02-18T09:53:05.733Z,106464.00
2019-02-18T09:55:09.915Z,106528.00
2019-02-18T09:56:10.165Z,109568.00
2019-02-18T09:58:03.316Z,111488.00
2019-02-18T09:59:03.546Z,111488.00
2019-02-18T10:01:07.750Z,108768.00
2019-02-18T10:02:08.001Z,108192.00
2019-02-18T10:04:12.186Z,109952.00
2019-02-18T10:05:12.440Z,108928.00
2019-02-18T10:07:16.650Z,108032.00
2019-02-18T10:08:16.899Z,107744.00
2019-02-18T10:10:21.079Z,114592.00
2019-02-18T10:11:21.336Z,114816.00
2019-02-18T10:13:25.550Z,112768.00
2019-02-18T10:14:25.806Z,115168.00
2019-02-18T10:16:30.013Z,118208.00
2019-02-18T10:17:30.267Z,114848.00
2019-02-18T10:19:34.450Z,117632.00
2019-02-18T10:20:34.703Z,115872.00
2019-02-18T10:22:38.907Z,117312.00
2019-02-18T10:23:39.162Z,122432.00
2019-02-18T10:25:43.340Z,120960.00
2019-02-18T10:26:43.597Z,118240.00
2019-02-18T10:28:47.803Z,123648.00
2019-02-18T10:29:48.063Z,125472.00
2019-02-18T10:31:52.274Z,122144.00
2019-02-18T10:32:52.530Z,121344.00
2019-02-18T10:34:56.716Z,127552.00
2019-02-18T10:35:56.972Z,127680.00
2019-02-18T10:37:55.253Z,123776.00
2019-02-18T10:38:50.361Z,125472.00
2019-02-18T10:40:54.541Z,127424.00
2019-02-18T10:41:54.799Z,125664.00
2019-02-18T10:43:59.002Z,126784.00
2019-02-18T10:44:59.258Z,130464.00
2019-02-18T10:47:03.550Z,132864.00
2019-02-18T10:48:03.814Z,130912.00
2019-02-18T10:50:07.983Z,125568.00
2019-02-18T10:51:08.242Z,123552.00
2019-02-18T10:53:12.446Z,125184.00
2019-02-18T10:54:12.703Z,127168.00
2019-02-18T10:56:16.884Z,123104.00
2019-02-18T10:57:17.141Z,119872.00
2019-02-18T10:59:21.346Z,125216.00
2019-02-18T11:00:21.602Z,129088.00
2019-02-18T11:02:25.813Z,125952.00
2019-02-18T11:03:26.068Z,122944.00
2019-02-18T11:05:30.262Z,128352.00
2019-02-18T11:06:30.515Z,134176.00
2019-02-18T11:08:34.723Z,129120.00
2019-02-18T11:09:34.981Z,125376.00
2019-02-18T11:11:39.170Z,126464.00
2019-02-18T11:12:39.431Z,126272.00
2019-02-18T11:14:43.641Z,123296.00
2019-02-18T11:15:43.895Z,124992.00
2019-02-18T11:17:39.212Z,130304.00
2019-02-18T11:18:37.299Z,130624.00
2019-02-18T11:20:41.487Z,117568.00
2019-02-18T11:21:41.742Z,114944.00
2019-02-18T11:23:45.951Z,123264.00
2019-02-18T11:24:46.210Z,122816.00
2019-02-18T11:26:50.390Z,115264.00
2019-02-18T11:27:50.645Z,119904.00
2019-02-18T11:29:54.847Z,124704.00
2019-02-18T11:30:55.103Z,120288.00
2019-02-18T11:33:00.316Z,115264.00
2019-02-18T11:34:00.574Z,116256.00
2019-02-18T11:36:04.763Z,122304.00
2019-02-18T11:37:05.015Z,120256.00
2019-02-18T11:39:10.236Z,113568.00
2019-02-18T11:40:10.493Z,115136.00
2019-02-18T11:42:14.695Z,113216.00
2019-02-18T11:43:14.951Z,106208.00
2019-02-18T11:45:19.137Z,107136.00
2019-02-18T11:46:19.391Z,111008.00
2019-02-18T11:48:23.593Z,107456.00
2019-02-18T11:49:23.848Z,106944.00
2019-02-18T11:51:28.051Z,119104.00
2019-02-18T11:52:28.306Z,122272.00
2019-02-18T11:54:32.485Z,112992.00
2019-02-18T11:55:32.738Z,104192.00
2019-02-18T11:57:25.996Z,102592.00
2019-02-18T11:58:26.247Z,110560.00
2019-02-18T12:00:30.428Z,117120.00
2019-02-18T12:01:30.682Z,115584.00
2019-02-18T12:03:34.885Z,114720.00
2019-02-18T12:04:35.139Z,114528.00
2019-02-18T12:06:39.333Z,111776.00
2019-02-18T12:07:39.590Z,110496.00
2019-02-18T12:09:43.768Z,113056.00
2019-02-18T12:10:44.026Z,112416.00
2019-02-18T12:12:48.227Z,110304.00
2019-02-18T12:13:48.478Z,116480.00
2019-02-18T12:15:52.655Z,121664.00
2019-02-18T12:16:52.917Z,114496.00
2019-02-18T12:18:57.113Z,110240.00
2019-02-18T12:19:57.363Z,120192.00
2019-02-18T12:22:01.568Z,121664.00
2019-02-18T12:23:01.819Z,112416.00
2019-02-18T12:25:05.999Z,101952.00
2019-02-18T12:26:06.251Z,102144.00
2019-02-18T12:27:59.375Z,105984.00
2019-02-18T12:28:59.630Z,110080.00
2019-02-18T12:31:03.814Z,100128.00
2019-02-18T12:32:04.088Z,96544.00
2019-02-18T12:34:08.292Z,104096.00
2019-02-18T12:35:08.555Z,102336.00
2019-02-18T12:37:12.727Z,99168.00
2019-02-18T12:38:12.992Z,101600.00
2019-02-18T12:40:17.195Z,106144.00
2019-02-18T12:41:17.451Z,107616.00
2019-02-18T12:43:21.647Z,111072.00
2019-02-18T12:44:21.905Z,110400.00
2019-02-18T12:46:26.087Z,115104.00
2019-02-18T12:47:26.341Z,117664.00
2019-02-18T12:49:30.534Z,116800.00
2019-02-18T12:50:30.793Z,117760.00
2019-02-18T12:52:34.971Z,120672.00
2019-02-18T12:53:35.223Z,120192.00
2019-02-18T12:55:39.424Z,120576.00
2019-02-18T12:56:39.674Z,121536.00
2019-02-18T12:58:54.277Z,124384.00
2019-02-18T12:59:44.166Z,121376.00
2019-02-18T13:01:48.318Z,116064.00
2019-02-18T13:02:48.570Z,117376.00
2019-02-18T13:04:52.771Z,118208.00
2019-02-18T13:05:53.022Z,115040.00
2019-02-18T13:07:46.131Z,114016.00
2019-02-18T13:08:46.382Z,114464.00
2019-02-18T13:10:50.579Z,113664.00
2019-02-18T13:11:58.748Z,111008.00
2019-02-18T13:13:55.029Z,106144.00
2019-02-18T13:14:55.284Z,110304.00
2019-02-18T13:16:59.479Z,111104.00
2019-02-18T13:20:03.924Z,107680.00
2019-02-18T13:21:04.175Z,107904.00
2019-02-18T13:23:08.383Z,106432.00
2019-02-18T13:24:08.631Z,110016.00
2019-02-18T13:26:12.947Z,106560.00
2019-02-18T13:27:13.198Z,103648.00
2019-02-18T13:29:17.405Z,101760.00
2019-02-18T13:30:17.696Z,102784.00
2019-02-18T13:32:21.951Z,111136.00
2019-02-18T13:33:22.195Z,108608.00
2019-02-18T13:35:26.396Z,98240.00
2019-02-18T13:36:26.715Z,102080.00
2019-02-18T13:38:30.918Z,108224.00
2019-02-18T13:39:31.171Z,103232.00
2019-02-18T13:41:36.875Z,99296.00
2019-02-18T13:42:35.696Z,100384.00
2019-02-18T13:44:39.873Z,96544.00
2019-02-18T13:45:40.126Z,94144.00
2019-02-18T13:47:33.255Z,93792.00
2019-02-18T13:48:33.507Z,89920.00
2019-02-18T13:50:37.717Z,99040.00
2019-02-18T13:51:37.957Z,98016.00
2019-02-18T13:53:42.147Z,91040.00
2019-02-18T13:54:42.395Z,91456.00
2019-02-18T13:56:46.599Z,91808.00
2019-02-18T13:57:46.853Z,89920.00
2019-02-18T13:59:51.040Z,77024.00
2019-02-18T14:00:51.294Z,82336.00
2019-02-18T14:02:55.496Z,77056.00
2019-02-18T14:03:55.750Z,71680.00
2019-02-18T14:05:59.963Z,77920.00
2019-02-18T14:07:00.214Z,83040.00
2019-02-18T14:09:04.395Z,76608.00
2019-02-18T14:10:04.647Z,79296.00
2019-02-18T14:12:15.882Z,78528.00
2019-02-18T14:13:09.100Z,83712.00
2019-02-18T14:15:13.282Z,71200.00
2019-02-18T14:16:13.530Z,67552.00
2019-02-18T14:18:06.662Z,84320.00
2019-02-18T14:19:06.911Z,79424.00
2019-02-18T14:21:11.096Z,87264.00
2019-02-18T14:22:11.349Z,81408.00
2019-02-18T14:24:15.554Z,75136.00
2019-02-18T14:25:15.849Z,80800.00
2019-02-18T14:27:20.065Z,72736.00
2019-02-18T14:28:20.318Z,77472.00
2019-02-18T14:30:24.520Z,75072.00
2019-02-18T14:31:24.827Z,77120.00
2019-02-18T14:33:29.079Z,75456.00
2019-02-18T14:34:29.362Z,72736.00
2019-02-18T14:36:34.575Z,75712.00
2019-02-18T14:37:34.831Z,70432.00
2019-02-18T14:39:39.025Z,77728.00
2019-02-18T14:40:39.455Z,76832.00
2019-02-18T14:42:43.714Z,71808.00
2019-02-18T14:43:43.997Z,70304.00
2019-02-18T14:45:48.183Z,67840.00
2019-02-18T14:46:48.431Z,67648.00
2019-02-18T14:48:53.131Z,66304.00
2019-02-18T14:49:53.408Z,64096.00
2019-02-18T14:51:57.592Z,57920.00
2019-02-18T14:52:57.900Z,60480.00
2019-02-18T14:55:02.154Z,61600.00
2019-02-18T14:56:02.446Z,60768.00
2019-02-18T14:57:56.644Z,56928.00
2019-02-18T14:58:56.918Z,57600.00
2019-02-18T15:01:01.135Z,59616.00
2019-02-18T15:02:01.415Z,60736.00
2019-02-18T15:04:05.620Z,61760.00
2019-02-18T15:05:05.905Z,57280.00
2019-02-18T15:07:10.130Z,57760.00
2019-02-18T15:08:10.433Z,56640.00
2019-02-18T15:10:14.640Z,55200.00
2019-02-18T15:11:14.928Z,53856.00
2019-02-18T15:13:20.218Z,54656.00
2019-02-18T15:14:20.507Z,50528.00
2019-02-18T15:16:24.732Z,51200.00
2019-02-18T15:17:24.984Z,49504.00
2019-02-18T15:19:29.258Z,48864.00
2019-02-18T15:20:29.504Z,47712.00
2019-02-18T15:22:33.767Z,42496.00
2019-02-18T15:23:34.014Z,42816.00
2019-02-18T15:25:38.192Z,43680.00
2019-02-18T15:26:38.447Z,42496.00
2019-02-18T15:28:42.716Z,35584.00
2019-02-18T15:29:42.987Z,38848.00
2019-02-18T15:31:47.213Z,41312.00
2019-02-18T15:32:47.465Z,39968.00
2019-02-18T15:34:51.661Z,32832.00
2019-02-18T15:35:51.911Z,33408.00
2019-02-18T15:37:45.013Z,35072.00
2019-02-18T15:38:45.263Z,34784.00
2019-02-18T15:40:49.464Z,31072.00
2019-02-18T15:41:49.711Z,30816.00
2019-02-18T15:43:53.918Z,30752.00
2019-02-18T15:44:54.168Z,30048.00
2019-02-18T15:46:58.350Z,25824.00
2019-02-18T15:48:01.652Z,23328.00
2019-02-18T15:50:02.795Z,22368.00
2019-02-18T15:51:03.042Z,22272.00
2019-02-18T15:53:07.219Z,22432.00
2019-02-18T15:54:07.467Z,17856.00
2019-02-18T15:56:11.664Z,18048.00
2019-02-18T15:57:11.916Z,17888.00
2019-02-18T15:59:16.092Z,16992.00
2019-02-18T16:00:16.339Z,14432.00
2019-02-18T16:02:20.531Z,8152.00
2019-02-18T16:03:20.777Z,5660.00
2019-02-18T16:05:24.970Z,3828.00
2019-02-18T16:06:25.217Z,3588.00
2019-02-18T16:08:29.385Z,3960.00
2019-02-18T16:09:29.629Z,4064.00
2019-02-18T16:11:33.817Z,3536.00
2019-02-18T16:12:34.064Z,2996.00
2019-02-18T16:14:38.230Z,2184.00
2019-02-18T16:15:38.471Z,2044.00
2019-02-18T16:17:31.596Z,1944.00
2019-02-18T16:18:31.832Z,1912.00
2019-02-18T16:20:35.993Z,1808.00
2019-02-18T16:21:36.233Z,1732.00
2019-02-18T16:23:40.418Z,1452.00
2019-02-18T16:24:40.657Z,1364.00
2019-02-18T16:26:44.836Z,1244.00
2019-02-18T16:27:45.078Z,1208.00
2019-02-18T16:29:49.234Z,1132.00
2019-02-18T16:30:49.477Z,1088.00
2019-02-18T16:32:53.650Z,948.00
2019-02-18T16:33:53.894Z,864.00
2019-02-18T16:35:58.084Z,732.00
2019-02-18T16:36:58.325Z,676.00
2019-02-18T16:39:02.481Z,568.00
2019-02-18T16:40:02.719Z,516.00
2019-02-18T16:42:06.901Z,428.00
2019-02-18T16:43:07.137Z,388.00
2019-02-18T16:45:11.291Z,316.00
2019-02-18T16:46:11.530Z,284.00
2019-02-18T16:48:04.635Z,228.00
2019-02-18T16:49:04.875Z,204.00
2019-02-18T16:51:09.025Z,160.00
2019-02-18T16:52:09.272Z,140.00
2019-02-18T16:54:13.445Z,104.00
2019-02-18T16:55:13.689Z,88.00
2019-02-18T16:57:17.857Z,64.00
2019-02-18T16:58:18.103Z,52.00
2019-02-18T17:00:22.253Z,36.00
2019-02-18T17:01:22.489Z,32.00
2019-02-18T17:03:26.666Z,24.00
2019-02-18T17:04:27.351Z,20.00
2019-02-18T17:06:31.056Z,16.00
2019-02-18T17:07:31.293Z,12.00
2019-02-18T17:09:35.464Z,4.00
2019-02-18T17:10:35.706Z,8.00
2019-02-18T17:12:39.888Z,4.00
2019-02-18T17:13:40.119Z,4.00
2019-02-18T17:15:44.272Z,4.00
2019-02-18T17:16:44.510Z,4.00
2019-02-18T17:18:48.689Z,0.00
2019-02-18T17:19:48.924Z,0.00
2019-02-18T17:21:53.074Z,0.00
2019-02-18T17:22:53.311Z,0.00
2019-02-18T17:24:57.480Z,0.00
2019-02-18T17:25:57.718Z,0.00
2019-02-18T17:27:50.808Z,0.00
2019-02-18T17:28:51.033Z,0.00
2019-02-18T17:30:55.204Z,0.00
2019-02-18T17:31:55.438Z,0.00
2019-02-18T17:33:59.610Z,0.00
2019-02-18T17:34:59.848Z,0.00
2019-02-18T17:37:03.998Z,0.00
2019-02-18T17:38:04.242Z,0.00
2019-02-18T17:40:08.406Z,0.00
2019-02-18T17:41:08.645Z,0.00
2019-02-18T17:43:16.507Z,0.00
2019-02-18T17:44:20.007Z,0.00
2019-02-18T17:46:17.207Z,0.00
2019-02-18T17:47:17.445Z,0.00
2019-02-18T17:49:21.616Z,0.00
2019-02-18T17:50:21.855Z,0.00
2019-02-18T17:52:26.004Z,0.00
2019-02-18T17:53:26.243Z,0.00
2019-02-18T17:55:30.411Z,0.00
2019-02-18T17:56:30.653Z,0.00
2019-02-18T17:58:34.828Z,0.00
2019-02-18T17:59:35.061Z,0.00
2019-02-18T18:01:39.232Z,0.00
2019-02-18T18:02:39.474Z,0.00
2019-02-18T18:04:43.635Z,0.00
2019-02-18T18:05:44.649Z,0.00
2019-02-18T18:07:36.972Z,0.00
2019-02-18T18:08:37.211Z,0.00
2019-02-18T18:10:41.382Z,0.00
2019-02-18T18:11:41.648Z,0.00
2019-02-18T18:13:45.826Z,0.00
2019-02-18T18:14:46.092Z,0.00
2019-02-18T18:16:50.319Z,0.00
2019-02-18T18:17:50.574Z,0.00
2019-02-18T18:19:54.779Z,0.00
2019-02-18T18:20:55.020Z,0.00
2019-02-18T18:22:59.164Z,0.00
2019-02-18T18:23:59.406Z,0.00
2019-02-18T18:26:03.622Z,0.00
2019-02-18T18:27:03.931Z,0.00
2019-02-18T18:29:08.109Z,0.00
2019-02-18T18:30:08.391Z,0.00
2019-02-18T18:32:12.556Z,0.00
2019-02-18T18:33:12.834Z,0.00
2019-02-18T18:35:17.079Z,0.00
2019-02-18T18:36:17.312Z,0.00
2019-02-18T18:38:22.776Z,0.00
2019-02-18T18:39:21.701Z,0.00
2019-02-18T18:41:25.864Z,0.00
2019-02-18T18:42:26.100Z,0.00
2019-02-18T18:44:30.242Z,0.00
2019-02-18T18:45:30.480Z,0.00
2019-02-18T18:47:23.582Z,0.00
2019-02-18T18:48:23.816Z,0.00
2019-02-18T18:50:28.045Z,0.00
2019-02-18T18:51:28.271Z,0.00
2019-02-18T18:53:32.417Z,0.00
2019-02-18T18:54:32.703Z,0.00